Time;durP1;ratioP1;P1;durP2;ratioP2;P2;SDS_P1;SDS_P2;PMS_P1;PMS_P2;Temp;Humidity;BMP_temperature;BMP_pressure;BME280_temperature;BME280_humidity;BME280_pressure;Samples;Min_cycle;Max_cycle;Signal;HPM_P1;HPM_P2
2023/08/06 00:01:05;;;;;;;2.47;0.55;;;;;;;15.20;90.70;100761.34;7360335;19;20019;-67
2023/08/06 00:03:32;;;;;;;1.70;0.60;;;;;;;15.18;91.01;100761.53;7358537;19;20102;-69
2023/08/06 00:05:59;;;;;;;3.15;0.68;;;;;;;15.11;90.12;100765.91;7364082;19;20022;-65
2023/08/06 00:08:26;;;;;;;3.63;0.50;;;;;;;15.06;89.59;100764.81;7366520;19;20066;-67
2023/08/06 00:10:53;;;;;;;1.38;0.50;;;;;;;15.08;89.99;100768.13;7362537;19;20018;-65
2023/08/06 00:13:20;;;;;;;5.68;0.80;;;;;;;15.07;90.21;100761.19;7368053;19;20018;-65
2023/08/06 00:15:48;;;;;;;4.35;0.50;;;;;;;15.05;90.47;100769.28;7365345;19;20014;-65
2023/08/06 00:18:15;;;;;;;4.47;0.57;;;;;;;15.08;90.25;100770.78;7364901;19;20019;-65
2023/08/06 00:20:42;;;;;;;3.55;0.75;;;;;;;15.09;89.02;100781.16;7364860;19;20489;-67
2023/08/06 00:23:09;;;;;;;1.35;0.45;;;;;;;15.04;88.83;100778.25;7361903;19;20828;-67
2023/08/06 00:25:36;;;;;;;5.18;0.70;;;;;;;14.96;89.25;100781.81;7361317;19;20018;-65
2023/08/06 00:28:03;;;;;;;3.90;0.70;;;;;;;14.96;89.17;100783.66;7364677;19;20469;-67
2023/08/06 00:30:31;;;;;;;2.80;0.55;;;;;;;14.94;88.92;100801.53;7360929;19;20434;-65
2023/08/06 00:32:58;;;;;;;3.30;0.50;;;;;;;14.88;89.00;100800.44;7365856;19;20650;-65
2023/08/06 00:35:25;;;;;;;2.30;0.70;;;;;;;14.86;89.27;100802.47;7365078;19;20019;-65
2023/08/06 00:37:52;;;;;;;2.10;0.73;;;;;;;14.83;89.05;100810.75;7367244;19;20022;-66
2023/08/06 00:40:21;;;;;;;3.05;0.50;;;;;;;14.76;88.74;100819.63;7360815;19;20581;-67
2023/08/06 00:42:48;;;;;;;3.53;0.50;;;;;;;14.74;89.10;100826.91;7366034;19;20051;-65
2023/08/06 00:45:15;;;;;;;1.75;0.60;;;;;;;14.74;88.91;100818.97;7361745;19;20535;-65
2023/08/06 00:47:43;;;;;;;2.25;0.70;;;;;;;14.73;88.86;100826.09;7364929;19;20122;-65
2023/08/06 00:50:10;;;;;;;4.55;0.70;;;;;;;14.75;90.09;100829.41;7360066;19;20018;-65
2023/08/06 00:52:37;;;;;;;3.80;0.60;;;;;;;14.78;88.60;100831.66;7365022;19;20018;-65
2023/08/06 00:55:05;;;;;;;4.20;0.50;;;;;;;14.71;88.94;100835.22;7360567;19;20764;-68
2023/08/06 00:57:33;;;;;;;3.83;0.60;;;;;;;14.71;88.95;100835.22;7364320;19;20018;-66
2023/08/06 01:00:00;;;;;;;5.07;0.70;;;;;;;14.70;89.07;100838.88;7362398;19;20026;-66
2023/08/06 01:02:27;;;;;;;1.38;0.70;;;;;;;14.75;89.61;100853.22;7364006;19;20022;-65
2023/08/06 01:04:54;;;;;;;5.47;0.70;;;;;;;14.76;88.50;100843.47;7366319;19;20010;-67
2023/08/06 01:07:43;;;;;;;3.75;0.80;;;;;;;14.73;89.13;100841.19;7366705;19;20014;-69
2023/08/06 01:10:23;;;;;;;4.68;1.05;;;;;;;14.75;89.91;100836.50;7360591;19;20038;-65
2023/08/06 01:13:18;;;;;;;3.22;0.80;;;;;;;14.75;89.54;100842.63;7366671;19;20022;-65
2023/08/06 01:15:49;;;;;;;5.25;0.70;;;;;;;14.76;88.52;100849.59;7362190;19;20806;-65
2023/08/06 01:18:16;;;;;;;3.15;0.80;;;;;;;14.71;88.70;100854.59;7365172;19;20022;-65
2023/08/06 01:20:43;;;;;;;4.03;0.90;;;;;;;14.69;88.51;100861.06;7362428;19;20095;-66
2023/08/06 01:23:10;;;;;;;3.42;0.88;;;;;;;14.65;88.50;100868.56;7363714;19;20038;-66
2023/08/06 01:25:58;;;;;;;4.63;1.55;;;;;;;14.62;89.13;100870.75;7355676;19;20007;-66
2023/08/06 01:29:26;;;;;;;7.35;1.48;;;;;;;14.60;88.59;100868.25;7363642;19;20836;-66
2023/08/06 01:31:56;;;;;;;7.03;1.30;;;;;;;14.59;89.34;100866.59;7357142;19;20528;-66
2023/08/06 01:34:30;;;;;;;3.35;1.13;;;;;;;14.57;89.09;100870.44;7363367;19;20015;-66
2023/08/06 01:36:59;;;;;;;5.95;1.20;;;;;;;14.58;89.18;100880.84;7362262;19;20015;-65
2023/08/06 01:39:26;;;;;;;3.28;0.90;;;;;;;14.55;88.69;100884.69;7358746;19;20584;-66
2023/08/06 01:41:53;;;;;;;3.83;1.23;;;;;;;14.54;88.78;100879.56;7364928;19;20051;-65
2023/08/06 01:44:21;;;;;;;6.65;1.40;;;;;;;14.52;88.62;100884.22;7362115;19;20360;-66
2023/08/06 01:46:48;;;;;;;3.70;1.15;;;;;;;14.50;89.28;100887.03;7362371;19;20006;-66
2023/08/06 01:49:15;;;;;;;6.47;1.45;;;;;;;14.51;89.84;100894.00;7358589;19;20521;-65
2023/08/06 01:51:41;;;;;;;4.70;1.20;;;;;;;14.54;90.32;100896.28;7363807;19;20047;-67
2023/08/06 01:54:09;;;;;;;4.03;0.90;;;;;;;14.55;89.70;100900.56;7360877;19;20028;-66
2023/08/06 01:56:35;;;;;;;2.85;1.00;;;;;;;14.56;89.53;100904.06;7361227;19;20113;-66
2023/08/06 01:59:02;;;;;;;3.05;0.95;;;;;;;14.54;89.40;100900.75;7360603;19;20018;-66
2023/08/06 02:01:31;;;;;;;5.88;2.30;;;;;;;14.54;89.36;100904.22;7364132;19;20050;-66
2023/08/06 02:03:58;;;;;;;6.20;1.33;;;;;;;14.54;88.67;100914.81;7362753;19;20321;-67
2023/08/06 02:06:25;;;;;;;2.80;0.95;;;;;;;14.50;89.04;100908.22;7362061;19;20102;-66
2023/08/06 02:08:52;;;;;;;7.85;1.05;;;;;;;14.51;89.35;100915.19;7359928;19;20010;-66
2023/08/06 02:11:19;;;;;;;3.58;1.17;;;;;;;14.50;89.89;100910.03;7359936;19;20018;-66
2023/08/06 02:13:46;;;;;;;4.80;1.25;;;;;;;14.50;89.75;100905.56;7363499;19;21102;-66
2023/08/06 02:16:13;;;;;;;5.00;1.02;;;;;;;14.49;89.32;100909.22;7362289;19;20015;-67
2023/08/06 02:18:40;;;;;;;5.70;1.02;;;;;;;14.45;89.07;100910.56;7363149;19;20046;-68
2023/08/06 02:21:07;;;;;;;5.25;1.00;;;;;;;14.46;89.73;100919.34;7362126;19;20293;-65
2023/08/06 02:23:34;;;;;;;6.40;0.75;;;;;;;14.41;89.13;100925.16;7361459;19;20360;-65
2023/08/06 02:26:03;;;;;;;3.80;1.00;;;;;;;14.40;89.35;100920.88;7358177;19;20010;-65
2023/08/06 02:28:31;;;;;;;2.20;0.93;;;;;;;14.39;89.99;100919.22;7359232;19;20014;-68
2023/08/06 02:30:58;;;;;;;4.60;0.80;;;;;;;14.39;89.99;100929.81;7354966;19;20035;-66
2023/08/06 02:33:26;;;;;;;3.40;0.85;;;;;;;14.40;89.13;100936.75;7356613;19;20070;-66
2023/08/06 02:36:00;;;;;;;5.50;0.73;;;;;;;14.38;89.47;100932.63;7363922;19;20832;-67
2023/08/06 02:38:27;;;;;;;2.67;0.82;;;;;;;14.35;89.33;100935.59;7364443;19;20014;-67
2023/08/06 02:40:54;;;;;;;2.67;1.27;;;;;;;14.33;89.20;100937.56;7357090;19;21640;-67
2023/08/06 02:43:21;;;;;;;3.15;0.80;;;;;;;14.37;90.59;100937.13;7362838;19;20015;-66
2023/08/06 02:45:48;;;;;;;4.03;0.82;;;;;;;14.36;89.49;100929.31;7359832;19;20022;-66
2023/08/06 02:48:15;;;;;;;4.50;0.93;;;;;;;14.34;88.96;100936.59;7362647;19;20021;-66
2023/08/06 02:50:43;;;;;;;5.53;1.27;;;;;;;14.34;89.28;100933.94;7360388;19;20721;-66
2023/08/06 02:53:10;;;;;;;4.40;0.90;;;;;;;14.34;89.79;100926.00;7363352;19;20010;-66
2023/08/06 02:55:37;;;;;;;6.20;0.93;;;;;;;14.33;89.40;100933.09;7353911;19;20015;-66
2023/08/06 02:58:04;;;;;;;1.92;0.85;;;;;;;14.37;89.24;100931.81;7361673;19;20594;-66
2023/08/06 03:00:31;;;;;;;3.28;0.82;;;;;;;14.35;87.92;100935.59;7361681;19;20024;-66
2023/08/06 03:02:58;;;;;;;4.07;0.80;;;;;;;14.35;88.32;100941.72;7355286;19;20958;-66
2023/08/06 03:05:25;;;;;;;4.80;0.90;;;;;;;14.34;88.82;100942.72;7359104;19;20018;-65
2023/08/06 03:08:00;;;;;;;6.18;0.90;;;;;;;14.33;88.66;100940.22;7362135;19;20741;-66
2023/08/06 03:10:27;;;;;;;4.45;1.05;;;;;;;14.32;88.94;100939.44;7354436;19;20529;-65
2023/08/06 03:12:54;;;;;;;4.38;0.80;;;;;;;14.33;89.03;100934.94;7361505;19;20022;-65
2023/08/06 03:15:21;;;;;;;2.38;0.88;;;;;;;14.33;88.54;100945.53;7358985;19;20043;-65
2023/08/06 03:17:48;;;;;;;3.00;1.20;;;;;;;14.34;88.88;100948.00;7363236;19;20479;-65
2023/08/06 03:20:15;;;;;;;4.70;1.00;;;;;;;14.32;87.79;100942.06;7359998;19;20018;-65
2023/08/06 03:22:42;;;;;;;7.57;1.35;;;;;;;14.29;88.08;100946.88;7359703;19;20332;-67
2023/08/06 03:25:09;;;;;;;3.17;0.98;;;;;;;14.31;88.57;100943.06;7355643;19;20050;-68
2023/08/06 03:27:36;;;;;;;5.40;1.02;;;;;;;14.32;87.74;100943.91;7362013;19;20539;-65
2023/08/06 03:30:04;;;;;;;5.30;1.10;;;;;;;14.30;88.05;100944.06;7357012;19;20051;-65
2023/08/06 03:32:31;;;;;;;3.70;1.00;;;;;;;14.30;87.61;100946.72;7356584;19;20038;-65
2023/08/06 03:34:57;;;;;;;4.97;1.10;;;;;;;14.32;88.33;100943.91;7358074;19;20049;-65
2023/08/06 03:37:25;;;;;;;5.32;0.80;;;;;;;14.31;87.50;100951.00;7362032;19;20081;-65
2023/08/06 03:39:51;;;;;;;2.75;0.82;;;;;;;14.32;87.62;100946.53;7351521;19;20031;-65
2023/08/06 03:42:18;;;;;;;3.00;0.82;;;;;;;14.32;88.06;100950.03;7360962;19;20396;-65
2023/08/06 03:44:47;;;;;;;4.78;1.00;;;;;;;14.32;87.53;100955.31;7357714;19;20582;-67
2023/08/06 03:47:14;;;;;;;3.72;1.00;;;;;;;14.33;86.11;100951.63;7358854;19;20029;-65
2023/08/06 03:49:41;;;;;;;4.93;0.98;;;;;;;14.31;85.64;100952.81;7357530;19;20078;-66
2023/08/06 03:52:08;;;;;;;3.38;1.05;;;;;;;14.28;85.58;100955.81;7360960;19;20052;-66
2023/08/06 03:54:35;;;;;;;5.30;0.98;;;;;;;14.25;86.09;100961.47;7355285;19;20006;-66
2023/08/06 03:57:02;;;;;;;5.18;1.25;;;;;;;14.21;86.38;100954.88;7360035;19;20022;-66
2023/08/06 03:59:29;;;;;;;5.68;1.02;;;;;;;14.21;86.36;100950.41;7357493;19;20051;-66
2023/08/06 04:01:56;;;;;;;3.10;0.90;;;;;;;14.23;86.42;100961.63;7360284;19;20098;-65
2023/08/06 04:04:23;;;;;;;5.10;1.00;;;;;;;14.23;86.03;100960.78;7354133;19;20510;-66
2023/08/06 04:06:50;;;;;;;3.05;0.98;;;;;;;14.24;86.53;100962.44;7360127;19;20454;-67
2023/08/06 04:09:17;;;;;;;5.03;1.17;;;;;;;14.22;86.31;100964.47;7353104;19;20029;-63
2023/08/06 04:11:44;;;;;;;2.70;0.82;;;;;;;14.21;86.21;100968.94;7359498;19;20018;-66
2023/08/06 04:14:11;;;;;;;2.17;0.70;;;;;;;14.22;86.50;100969.75;7357537;19;20434;-66
2023/08/06 04:16:38;;;;;;;3.45;1.08;;;;;;;14.21;86.67;100978.69;7360994;19;20490;-66
2023/08/06 04:19:05;;;;;;;5.65;1.00;;;;;;;14.22;86.77;100985.63;7358134;19;20617;-66
2023/08/06 04:21:32;;;;;;;4.05;0.85;;;;;;;14.24;87.10;100983.63;7357835;19;20742;-66
2023/08/06 04:24:00;;;;;;;4.40;0.95;;;;;;;14.23;86.28;100993.38;7355909;19;20016;-66
2023/08/06 04:26:27;;;;;;;6.60;1.10;;;;;;;14.24;86.98;100984.44;7357821;19;20094;-65
2023/08/06 04:28:53;;;;;;;2.47;0.90;;;;;;;14.24;86.85;100979.16;7356572;19;20494;-66
2023/08/06 04:31:21;;;;;;;7.72;1.17;;;;;;;14.23;86.87;100996.03;7359617;19;20431;-65
2023/08/06 04:33:48;;;;;;;3.53;1.15;;;;;;;14.24;87.54;100995.03;7353972;19;20610;-66
2023/08/06 04:36:15;;;;;;;4.15;1.10;;;;;;;14.23;88.09;100997.84;7361628;19;20021;-65
2023/08/06 04:38:45;;;;;;;2.45;0.73;;;;;;;14.25;87.96;100999.34;7356311;19;20019;-65
2023/08/06 04:41:11;;;;;;;2.22;0.82;;;;;;;14.27;88.06;101004.47;7355544;19;20086;-65
2023/08/06 04:43:38;;;;;;;4.10;0.88;;;;;;;14.22;87.60;101010.25;7358135;19;20018;-65
2023/08/06 04:46:06;;;;;;;4.72;1.33;;;;;;;14.24;87.50;101008.28;7358971;19;20086;-65
2023/08/06 04:48:33;;;;;;;4.45;1.02;;;;;;;14.21;87.28;101019.22;7360299;19;20059;-65
2023/08/06 04:51:00;;;;;;;7.18;1.20;;;;;;;14.20;87.61;101017.56;7355936;19;20018;-66
2023/08/06 04:53:27;;;;;;;4.20;1.00;;;;;;;14.21;88.04;101021.03;7366154;19;20033;-65
2023/08/06 04:55:54;;;;;;;6.20;1.00;;;;;;;14.21;88.51;101021.03;7359597;19;20011;-65
2023/08/06 04:58:21;;;;;;;3.97;1.10;;;;;;;14.22;87.46;101030.63;7365638;19;20007;-65
2023/08/06 05:00:49;;;;;;;2.88;1.00;;;;;;;14.21;87.62;101026.31;7360465;19;20023;-65
2023/08/06 05:03:16;;;;;;;4.07;1.63;;;;;;;14.22;87.69;101026.13;7365087;19;20010;-65
2023/08/06 05:05:46;;;;;;;6.45;1.17;;;;;;;14.23;87.63;101037.53;7363804;19;20018;-66
2023/08/06 05:08:16;;;;;;;3.50;0.90;;;;;;;14.21;87.40;101036.91;7364023;19;20097;-65
2023/08/06 05:10:45;;;;;;;3.03;0.95;;;;;;;14.17;87.22;101040.91;7358138;19;20026;-65
2023/08/06 05:13:12;;;;;;;3.78;1.20;;;;;;;14.16;87.53;101040.06;7362971;19;20554;-65
2023/08/06 05:15:42;;;;;;;2.47;1.02;;;;;;;14.17;87.60;101046.19;7363219;19;20072;-66
2023/08/06 05:18:09;;;;;;;3.67;1.23;;;;;;;14.14;87.99;101047.34;7366200;19;20380;-65
2023/08/06 05:20:38;;;;;;;6.18;1.45;;;;;;;14.12;88.14;101047.50;7364009;19;21134;-67
2023/08/06 05:23:05;;;;;;;3.60;0.95;;;;;;;14.13;88.47;101062.41;7364247;19;20010;-67
2023/08/06 05:25:33;;;;;;;3.28;0.93;;;;;;;14.16;88.45;101055.13;7358186;19;20082;-65
2023/08/06 05:28:06;;;;;;;3.92;1.08;;;;;;;14.19;88.33;101062.72;7365195;19;20019;-65
2023/08/06 05:30:33;;;;;;;5.15;1.45;;;;;;;14.14;87.54;101061.41;7363015;19;20653;-65
2023/08/06 05:33:00;;;;;;;3.08;1.13;;;;;;;14.14;88.11;101060.56;7364647;19;20038;-65
2023/08/06 05:35:27;;;;;;;6.97;1.48;;;;;;;14.14;88.75;101072.00;7358217;19;20018;-66
2023/08/06 05:38:01;;;;;;;4.80;1.10;;;;;;;14.14;88.25;101068.53;7365201;19;20057;-64
2023/08/06 05:40:28;;;;;;;4.50;1.20;;;;;;;14.12;88.23;101073.16;7359549;19;20022;-65
2023/08/06 05:42:55;;;;;;;5.53;1.25;;;;;;;14.13;88.12;101074.81;7362945;19;20570;-65
2023/08/06 05:45:22;;;;;;;2.97;1.20;;;;;;;14.13;87.84;101080.09;7362224;19;20014;-65
2023/08/06 05:47:49;;;;;;;7.00;1.13;;;;;;;14.09;87.80;101084.06;7367915;19;20927;-66
2023/08/06 05:50:17;;;;;;;3.97;1.20;;;;;;;14.10;87.79;101085.75;7363188;19;20022;-65
2023/08/06 05:52:44;;;;;;;6.38;1.60;;;;;;;14.14;88.10;101092.34;7364718;19;20699;-66
2023/08/06 05:55:11;;;;;;;4.57;1.45;;;;;;;14.18;88.21;101095.47;7358448;19;20014;-65
2023/08/06 05:57:38;;;;;;;5.00;1.20;;;;;;;14.21;88.73;101093.31;7361060;19;20056;-65
2023/08/06 06:00:06;;;;;;;3.80;0.98;;;;;;;14.20;88.38;101094.31;7363282;19;20019;-66
2023/08/06 06:02:33;;;;;;;5.82;1.48;;;;;;;14.26;89.12;101090.16;7362278;19;20044;-64
2023/08/06 06:05:00;;;;;;;3.55;0.90;;;;;;;14.29;87.83;101092.47;7357668;19;21367;-65
2023/08/06 06:07:27;;;;;;;2.92;1.00;;;;;;;14.32;87.87;101089.50;7361731;19;20009;-65
2023/08/06 06:09:54;;;;;;;4.80;1.17;;;;;;;14.34;88.73;101098.91;7357007;19;20969;-67
2023/08/06 06:12:22;;;;;;;2.70;1.05;;;;;;;14.40;88.98;101097.41;7361806;19;20522;-67
2023/08/06 06:14:49;;;;;;;3.92;1.27;;;;;;;14.44;87.81;101104.03;7355638;19;20023;-66
2023/08/06 06:17:16;;;;;;;3.03;1.08;;;;;;;14.46;87.91;101107.34;7362295;19;20014;-65
2023/08/06 06:19:43;;;;;;;4.30;1.10;;;;;;;14.50;88.76;101103.34;7360873;19;21611;-65
2023/08/06 06:22:10;;;;;;;5.10;1.42;;;;;;;14.53;88.57;101110.94;7360752;19;20025;-65
2023/08/06 06:24:37;;;;;;;3.78;1.10;;;;;;;14.51;87.85;101111.13;7359809;19;20204;-65
2023/08/06 06:27:04;;;;;;;4.00;1.08;;;;;;;14.57;88.61;101104.31;7362667;19;20637;-65
2023/08/06 06:29:31;;;;;;;3.25;1.25;;;;;;;14.59;87.15;101110.25;7361018;19;20122;-65
2023/08/06 06:31:58;;;;;;;6.50;1.00;;;;;;;14.59;88.19;101106.78;7362153;19;20022;-65
2023/08/06 06:34:25;;;;;;;4.07;0.90;;;;;;;14.63;88.94;101114.19;7358703;19;20057;-67
2023/08/06 06:36:52;;;;;;;3.70;1.10;;;;;;;14.65;87.84;101108.75;7359110;19;20488;-66
2023/08/06 06:39:21;;;;;;;3.45;1.00;;;;;;;14.71;87.05;101108.88;7358121;19;20166;-66
2023/08/06 06:41:48;;;;;;;3.58;0.90;;;;;;;14.76;87.55;101111.84;7358605;19;20006;-66
2023/08/06 06:44:15;;;;;;;3.50;1.13;;;;;;;14.81;88.08;101119.28;7362067;19;20014;-66
2023/08/06 06:46:42;;;;;;;3.25;0.90;;;;;;;14.82;86.98;101115.63;7360823;19;20018;-67
2023/08/06 06:49:09;;;;;;;2.92;0.98;;;;;;;14.81;87.58;101122.75;7360838;19;20039;-66
2023/08/06 06:51:36;;;;;;;4.72;1.30;;;;;;;14.86;86.62;101122.22;7357956;19;20621;-66
2023/08/06 06:54:06;;;;;;;5.13;1.17;;;;;;;14.88;86.97;101115.75;7357661;19;20498;-66
2023/08/06 06:56:33;;;;;;;2.97;1.00;;;;;;;14.97;87.31;101132.44;7359906;19;21154;-65
2023/08/06 06:59:00;;;;;;;3.42;1.15;;;;;;;15.05;87.71;101128.91;7361100;19;20007;-65
2023/08/06 07:01:26;;;;;;;3.80;0.90;;;;;;;15.09;88.17;101135.50;7362743;19;20094;-65
2023/08/06 07:03:54;;;;;;;5.72;1.05;;;;;;;15.17;86.55;101140.78;7361127;19;20140;-65
2023/08/06 07:06:21;;;;;;;2.22;1.00;;;;;;;15.20;85.58;101135.09;7361484;19;20019;-67
2023/08/06 07:08:48;;;;;;;2.97;0.90;;;;;;;15.18;85.21;101134.47;7360431;19;20178;-65
2023/08/06 07:11:15;;;;;;;3.88;1.08;;;;;;;15.18;85.09;101131.81;7354814;19;20651;-66
2023/08/06 07:13:42;;;;;;;4.50;0.95;;;;;;;15.17;84.49;101131.00;7360562;19;20134;-66
2023/08/06 07:16:09;;;;;;;3.83;0.70;;;;;;;15.18;85.71;101132.66;7357317;19;20014;-65
2023/08/06 07:18:37;;;;;;;3.58;1.00;;;;;;;15.23;86.01;101134.78;7361642;19;20022;-65
2023/08/06 07:21:04;;;;;;;6.35;1.00;;;;;;;15.26;85.03;101137.91;7361021;19;20493;-66
2023/08/06 07:23:31;;;;;;;3.33;0.93;;;;;;;15.29;85.12;101134.88;7361020;19;20018;-65
2023/08/06 07:25:58;;;;;;;6.00;0.80;;;;;;;15.35;86.35;101149.25;7355614;19;20015;-65
2023/08/06 07:28:26;;;;;;;2.97;0.73;;;;;;;15.42;85.50;101144.91;7359954;19;20007;-66
2023/08/06 07:30:52;;;;;;;4.18;0.77;;;;;;;15.50;84.18;101151.97;7359727;19;20018;-65
2023/08/06 07:33:19;;;;;;;5.28;0.80;;;;;;;15.53;84.17;101160.47;7359597;19;20019;-65
2023/08/06 07:35:46;;;;;;;2.30;0.80;;;;;;;15.57;84.65;101153.78;7357561;19;20101;-66
2023/08/06 07:38:13;;;;;;;2.08;0.90;;;;;;;15.64;85.37;101160.06;7359852;19;20027;-65
2023/08/06 07:40:40;;;;;;;5.03;0.80;;;;;;;15.70;82.94;101164.63;7356618;19;20581;-66
2023/08/06 07:43:07;;;;;;;2.40;0.60;;;;;;;15.74;80.65;101173.06;7360647;19;20022;-66
2023/08/06 07:45:38;;;;;;;4.55;0.80;;;;;;;15.73;81.64;101171.41;7357809;19;20014;-66
2023/08/06 07:48:06;;;;;;;2.03;0.95;;;;;;;15.79;82.70;101170.72;7360326;19;20608;-66
2023/08/06 07:50:33;;;;;;;3.78;0.80;;;;;;;15.92;82.09;101172.75;7358982;19;20490;-68
2023/08/06 07:53:00;;;;;;;2.90;0.80;;;;;;;16.07;82.68;101168.28;7357947;19;20432;-69
2023/08/06 07:55:27;;;;;;;1.40;0.80;;;;;;;16.18;79.19;101175.84;7355115;19;20018;-65
2023/08/06 07:58:04;;;;;;;2.58;0.73;;;;;;;16.30;79.38;101177.06;7359536;19;20693;-66
2023/08/06 08:00:33;;;;;;;4.30;0.90;;;;;;;16.43;79.24;101177.22;7355724;19;20022;-65
2023/08/06 08:03:00;;;;;;;2.38;0.70;;;;;;;16.74;76.13;101173.59;7357624;19;20218;-67
2023/08/06 08:05:27;;;;;;;3.33;0.80;;;;;;;16.94;74.59;101170.19;7358811;19;20060;-65
2023/08/06 08:08:00;;;;;;;4.70;0.80;;;;;;;17.19;73.32;101183.16;7358500;19;21676;-66
2023/08/06 08:10:27;;;;;;;3.30;0.77;;;;;;;17.22;72.70;101177.47;7352883;19;20082;-66
2023/08/06 08:12:54;;;;;;;4.85;1.83;;;;;;;17.19;71.77;101180.50;7356818;19;20017;-67
2023/08/06 08:15:21;;;;;;;3.50;0.70;;;;;;;17.03;71.67;101176.22;7357815;19;20117;-67
2023/08/06 08:17:48;;;;;;;3.15;0.70;;;;;;;17.07;72.10;101182.81;7359958;19;20014;-65
2023/08/06 08:20:16;;;;;;;4.25;0.50;;;;;;;17.10;73.03;101185.94;7359124;19;20522;-66
2023/08/06 08:22:43;;;;;;;2.10;0.52;;;;;;;17.11;71.83;101192.09;7359334;19;20039;-66
2023/08/06 08:25:10;;;;;;;5.20;1.00;;;;;;;17.06;70.10;101190.00;7354553;19;20027;-67
2023/08/06 08:27:37;;;;;;;4.47;0.50;;;;;;;16.98;70.62;101192.72;7368882;19;20349;-67
2023/08/06 08:30:05;;;;;;;1.33;0.50;;;;;;;16.89;71.05;101188.53;7362281;19;20451;-64
2023/08/06 08:32:32;;;;;;;2.97;0.50;;;;;;;16.88;69.84;101186.06;7364488;19;20102;-67
2023/08/06 08:34:59;;;;;;;1.85;0.60;;;;;;;16.79;70.88;101189.81;7363500;19;20142;-66
2023/08/06 08:37:26;;;;;;;1.38;0.50;;;;;;;16.77;71.59;101192.66;7361346;19;20018;-66
2023/08/06 08:39:53;;;;;;;2.67;0.40;;;;;;;16.74;71.78;101194.88;7358115;19;20042;-66
2023/08/06 08:42:21;;;;;;;2.63;0.63;;;;;;;16.73;71.66;101194.03;7365569;19;20218;-66
2023/08/06 08:44:48;;;;;;;3.17;0.60;;;;;;;16.76;70.84;101201.63;7365311;19;20018;-69
2023/08/06 08:47:16;;;;;;;1.85;0.60;;;;;;;16.77;71.38;101194.47;7366286;19;20026;-66
2023/08/06 08:49:44;;;;;;;4.10;0.50;;;;;;;16.79;71.18;101192.47;7362228;19;20039;-66
2023/08/06 08:52:13;;;;;;;1.30;0.47;;;;;;;16.81;71.31;101193.13;7362424;19;20014;-65
2023/08/06 08:54:41;;;;;;;2.03;0.82;;;;;;;16.78;72.00;101196.13;7360513;19;20019;-67
2023/08/06 08:57:08;;;;;;;2.80;0.60;;;;;;;16.80;72.27;101199.44;7366908;19;20010;-67
2023/08/06 08:59:35;;;;;;;1.75;0.52;;;;;;;16.80;71.49;101194.13;7363361;19;20618;-66
2023/08/06 09:02:02;;;;;;;2.25;0.50;;;;;;;16.88;71.24;101197.50;7366123;19;20016;-67
2023/08/06 09:04:31;;;;;;;2.05;0.43;;;;;;;16.98;68.95;101210.50;7362745;19;20007;-70
2023/08/06 09:07:01;;;;;;;1.42;0.40;;;;;;;16.95;68.91;101203.75;7365662;19;20026;-66
2023/08/06 09:09:33;;;;;;;2.17;0.75;;;;;;;17.00;69.82;101197.88;7359822;19;20783;-66
2023/08/06 09:12:02;;;;;;;3.38;0.70;;;;;;;17.12;68.16;101192.91;7362253;19;20502;-66
2023/08/06 09:14:29;;;;;;;2.28;0.70;;;;;;;17.19;68.28;101194.63;7363135;19;20018;-67
2023/08/06 09:16:57;;;;;;;2.80;0.50;;;;;;;17.22;68.77;101202.22;7364034;19;20019;-66
2023/08/06 09:19:28;;;;;;;1.70;0.55;;;;;;;17.30;66.53;101209.28;7363595;19;20018;-65
2023/08/06 09:21:56;;;;;;;2.05;0.47;;;;;;;17.37;66.27;101204.88;7365178;19;20356;-65
2023/08/06 09:24:23;;;;;;;2.20;0.40;;;;;;;17.46;65.96;101212.53;7358022;19;20104;-66
2023/08/06 09:26:50;;;;;;;3.08;0.70;;;;;;;17.47;66.34;101219.50;7364154;19;20569;-67
2023/08/06 09:29:18;;;;;;;1.90;0.60;;;;;;;17.48;63.83;101215.00;7363117;19;20020;-65
2023/08/06 09:31:47;;;;;;;2.28;0.45;;;;;;;17.50;65.77;101219.13;7362999;19;20070;-65
2023/08/06 09:34:19;;;;;;;2.78;0.52;;;;;;;17.53;68.10;101224.06;7363147;19;20014;-65
2023/08/06 09:36:56;;;;;;;2.53;0.40;;;;;;;17.54;66.53;101223.06;7363802;19;20098;-66
2023/08/06 09:39:30;;;;;;;2.75;0.50;;;;;;;17.64;67.68;101228.09;7353933;19;20054;-66
2023/08/06 09:41:59;;;;;;;3.08;0.60;;;;;;;17.67;66.54;101241.06;7360276;19;20014;-65
2023/08/06 09:44:28;;;;;;;1.45;0.60;;;;;;;17.70;65.56;101232.69;7362893;19;20387;-66
2023/08/06 09:46:59;;;;;;;3.05;0.57;;;;;;;17.77;67.00;101232.75;7361781;19;20090;-66
2023/08/06 09:49:40;;;;;;;2.05;0.50;;;;;;;17.78;65.95;101224.56;7364330;19;20122;-65
2023/08/06 09:52:11;;;;;;;2.38;0.50;;;;;;;17.81;67.44;101229.53;7362028;19;20503;-67
2023/08/06 09:54:38;;;;;;;1.02;0.57;;;;;;;17.90;65.57;101235.53;7359792;19;20007;-66
2023/08/06 09:57:06;;;;;;;2.72;0.50;;;;;;;17.95;66.37;101241.09;7362940;19;20021;-66
2023/08/06 09:59:34;;;;;;;2.35;0.50;;;;;;;18.01;68.54;101236.88;7361757;19;20066;-66
2023/08/06 10:02:02;;;;;;;2.35;0.40;;;;;;;18.03;64.66;101234.84;7360771;19;20011;-66
2023/08/06 10:04:30;;;;;;;2.30;0.60;;;;;;;18.00;64.95;101244.03;7358584;19;20024;-65
2023/08/06 10:07:07;;;;;;;2.08;0.52;;;;;;;18.06;63.86;101237.94;7362913;19;20015;-65
2023/08/06 10:09:34;;;;;;;1.15;0.50;;;;;;;18.05;63.95;101241.63;7358148;19;20085;-66
2023/08/06 10:12:01;;;;;;;1.90;0.50;;;;;;;18.04;65.11;101247.94;7363928;19;21827;-65
2023/08/06 10:14:33;;;;;;;2.45;0.50;;;;;;;18.10;66.30;101236.53;7364022;19;20351;-66
2023/08/06 10:17:01;;;;;;;0.77;0.35;;;;;;;18.19;64.77;101245.22;7365707;19;20122;-66
2023/08/06 10:19:29;;;;;;;4.38;0.40;;;;;;;18.17;65.66;101241.94;7360977;19;20098;-65
2023/08/06 10:22:16;;;;;;;1.02;0.40;;;;;;;18.12;65.83;101247.00;7362226;19;20032;-65
2023/08/06 10:24:49;;;;;;;1.70;0.60;;;;;;;18.13;66.91;101251.31;7358459;19;20025;-68
2023/08/06 10:27:31;;;;;;;1.90;0.70;;;;;;;18.19;67.57;101250.53;7361627;19;20543;-66
2023/08/06 10:30:27;;;;;;;1.88;0.50;;;;;;;18.25;68.83;101255.94;7361107;19;20015;-67
2023/08/06 10:33:00;;;;;;;2.22;0.73;;;;;;;18.27;67.43;101259.25;7360765;19;20596;-65
2023/08/06 10:35:28;;;;;;;;;;;;;;;18.34;67.89;101244.09;7361043;19;20042;-65
2023/08/06 10:38:09;;;;;;;2.90;0.50;;;;;;;18.46;66.41;101262.25;7362413;19;19926;-65
2023/08/06 10:40:40;;;;;;;2.95;0.50;;;;;;;18.49;65.16;101270.66;7352842;19;20028;-67
2023/08/06 10:43:08;;;;;;;1.02;0.50;;;;;;;18.42;65.67;101260.97;7362438;19;20022;-66
2023/08/06 10:45:37;;;;;;;3.08;0.52;;;;;;;18.38;66.11;101261.38;7360737;19;20030;-66
2023/08/06 10:48:04;;;;;;;1.77;0.52;;;;;;;18.34;66.35;101265.44;7357255;19;20022;-66
2023/08/06 10:50:32;;;;;;;2.35;0.75;;;;;;;18.28;67.08;101260.06;7358530;19;20018;-65
2023/08/06 10:53:05;;;;;;;2.10;0.50;;;;;;;18.22;69.08;101264.31;7357797;19;20052;-65
2023/08/06 10:55:32;;;;;;;1.83;0.50;;;;;;;18.18;69.67;101263.06;7356618;19;20073;-66
2023/08/06 10:58:08;;;;;;;2.55;0.50;;;;;;;18.15;69.55;101265.25;7361213;19;20105;-67
2023/08/06 11:00:36;;;;;;;2.33;0.52;;;;;;;18.10;69.58;101259.69;7361920;19;20033;-66
2023/08/06 11:03:03;;;;;;;3.03;0.60;;;;;;;18.03;70.79;101262.28;7365368;19;20021;-65
2023/08/06 11:05:31;;;;;;;2.97;0.90;;;;;;;18.00;70.94;101257.34;7353439;19;20018;-67
2023/08/06 11:08:23;;;;;;;1.77;0.57;;;;;;;18.02;70.60;101260.66;7363685;19;20097;-65
2023/08/06 11:10:50;;;;;;;1.52;0.60;;;;;;;18.05;70.65;101259.44;7356788;19;20014;-66
2023/08/06 11:13:31;;;;;;;2.35;0.50;;;;;;;18.08;70.80;101261.72;7364469;19;20018;-66
2023/08/06 11:15:58;;;;;;;3.35;0.60;;;;;;;18.08;71.78;101261.72;7363750;19;20049;-66
2023/08/06 11:18:26;;;;;;;2.00;0.57;;;;;;;18.11;72.54;101266.66;7364869;19;20171;-66
2023/08/06 11:20:53;;;;;;;4.78;1.33;;;;;;;18.12;72.01;101263.00;7357174;19;20014;-65
2023/08/06 11:23:20;;;;;;;3.22;0.68;;;;;;;18.13;72.10;101267.31;7359140;19;20018;-65
2023/08/06 11:25:48;;;;;;;2.20;0.80;;;;;;;18.15;73.16;101276.75;7356905;19;20455;-65
2023/08/06 11:28:15;;;;;;;3.53;1.67;;;;;;;18.21;71.92;101275.16;7362701;19;20014;-65
2023/08/06 11:30:42;;;;;;;2.25;0.60;;;;;;;18.24;72.09;101282.75;7358445;19;20510;-68